< Cyclone 201012 2010 Season Cyclone 201101 >
Cyclone 201013 (Sean)
General InformationTrack Information on Google MapsDetailed Wind InformationList of All Images || ResourceGoogle EarthGE AnimationAtom FeedGeoJSON
Detalied Best Track (Time Zone = UTC)
Year Month Day Hour Lat. Long. Pressure (hPa) Wind (kt) Class Image Chart
2010 4 20 06 -9.9 117.5 1006 20 2 Image --
2010 4 20 12 -9.9 117.4 1006 20 2 Image --
2010 4 20 18 -9.9 117.2 1005 20 2 Image --
2010 4 21 00 -9.9 117.0 1004 25 2 Image --
2010 4 21 06 -10.1 116.8 1004 25 2 Image --
2010 4 21 12 -10.5 116.5 1002 25 2 Image --
2010 4 21 18 -11.1 116.2 1002 25 2 Image --
2010 4 22 00 -11.8 115.9 1002 25 2 Image --
2010 4 22 06 -12.2 115.6 1002 25 2 Image --
2010 4 22 12 -12.6 115.3 1000 35 3 Image --
2010 4 22 15 -12.9 114.9 998 35 3 Image --
2010 4 22 18 -13.1 114.7 996 40 3 Image --
2010 4 23 00 -13.4 114.3 994 45 3 Image --
2010 4 23 06 -13.9 114.0 990 50 4 Image --
2010 4 23 12 -14.4 113.7 990 50 4 Image --
2010 4 23 18 -15.0 113.3 988 55 4 Image --
2010 4 24 00 -15.6 113.1 988 55 4 Image --
2010 4 24 06 -16.4 112.8 988 55 4 Image --
2010 4 24 12 -17.0 112.6 990 50 4 Image --
2010 4 24 18 -17.2 111.9 996 40 3 Image --
2010 4 25 00 -17.4 111.3 998 35 3 Image --
2010 4 25 06 -18.0 110.5 1000 30 2 Image --
2010 4 25 12 -18.2 109.7 1002 30 2 Image --
2010 4 25 18 -18.2 108.3 1002 30 2 Image --
2010 4 26 00 -18.2 107.0 1004 25 2 Image --
2010 4 26 06 -18.1 105.5 1004 25 2 Image --
2010 4 26 12 -18.1 104.3 1004 25 2 Image --
< Cyclone 201012 2010 Season Cyclone 201101 >

Help